logo
Search for airport 
image banner adimage banner adimage banner ad
image banner ad

CA748 - Apple River (Cca7)

Located in , Canada

ICAO - , IATA -

Data provided by Airmate  

General information

Coordinates: N45°27'43" W64°49'17"
Elevation is 117 feet MSL.
 
View others Airports in Nova Scotia

Operational data

Special qualification required
Current time UTC:
Current local time:
Weather at : CYZX - Greenwood ( 54 km )
METAR: CYZX 230500Z 00000KT 15SM SKC M02/M06 A3018 RMK DENSITY ALT -2199FT SLP220
TAF: TAF CYZX 230540Z 2306/2406 00000KT P6SM SKC BECMG 2312/2314 15005KT BECMG 2315/2317 16012KT FM231900 16012KT P6SM SCT250 FM232200 15010KT P6SM BKN250 BECMG 2400/2402 13005KT BECMG 2404/2406 07005KT RMK NXT FCST BY 231200Z
View NOTAMs / SUP AIP / TFR affecting this airport [VIEW]
Communications frequencies: [VIEW]

Runways:

Airport contact information

Address: Canada

Satellite view of CA748